Terminal Aerodrome Forecast
Issued by NWS Sterling, VA

Current Version | Previous Version | Graphics & Text | Print | Product List | Glossary On
Versions: 1 2 3 4 5 6 7 8 9 10 11 12 13 14 15 16 17 18 19 20 21 22 23 24 25 26 27
000
FTUS41 KLWX 220853 AAA
TAFIAD
TAF AMD
KIAD 220853Z 2209/2312 VRB03KT 3SM -SHRA SCT003 OVC015
      TEMPO 2210/2213 BKN003
     FM221300 15004KT 3SM -SHRA OVC003
     FM221800 18005KT P6SM BKN020
     FM222000 20005KT P6SM BKN035
     FM230200 30004KT P6SM SCT070
     FM230500 VRB03KT P6SM BKN120
     FM231000 35005KT P6SM BKN110=

USA.gov is the U.S. government's official web portal to all federal, state and local government web resources and services.